sensor_id;sensor_type;location;lat;lon;timestamp;P1;durP1;ratioP1;P2;durP2;ratioP2
19521;SDS011;9905;52.126;5.596;2022-10-16T00:01:34;4.57;;;4.28;;
19521;SDS011;9905;52.126;5.596;2022-10-16T00:04:01;4.55;;;4.30;;
19521;SDS011;9905;52.126;5.596;2022-10-16T00:06:28;4.70;;;4.22;;
19521;SDS011;9905;52.126;5.596;2022-10-16T00:08:57;4.38;;;4.18;;
19521;SDS011;9905;52.126;5.596;2022-10-16T00:11:25;4.60;;;4.35;;
19521;SDS011;9905;52.126;5.596;2022-10-16T00:13:55;4.47;;;4.18;;
19521;SDS011;9905;52.126;5.596;2022-10-16T00:16:22;5.03;;;4.75;;
19521;SDS011;9905;52.126;5.596;2022-10-16T00:18:49;4.70;;;4.50;;
19521;SDS011;9905;52.126;5.596;2022-10-16T00:21:17;6.43;;;4.72;;
19521;SDS011;9905;52.126;5.596;2022-10-16T00:23:45;4.82;;;4.63;;
19521;SDS011;9905;52.126;5.596;2022-10-16T00:26:14;5.35;;;5.03;;
19521;SDS011;9905;52.126;5.596;2022-10-16T00:28:42;4.80;;;4.65;;
19521;SDS011;9905;52.126;5.596;2022-10-16T00:31:11;5.32;;;5.00;;
19521;SDS011;9905;52.126;5.596;2022-10-16T00:33:38;5.30;;;5.10;;
19521;SDS011;9905;52.126;5.596;2022-10-16T00:36:06;5.45;;;5.07;;
19521;SDS011;9905;52.126;5.596;2022-10-16T00:38:35;5.72;;;5.43;;
19521;SDS011;9905;52.126;5.596;2022-10-16T00:41:02;4.60;;;4.40;;
19521;SDS011;9905;52.126;5.596;2022-10-16T00:43:36;5.63;;;5.32;;
19521;SDS011;9905;52.126;5.596;2022-10-16T00:46:07;5.80;;;5.47;;
19521;SDS011;9905;52.126;5.596;2022-10-16T00:48:39;5.03;;;4.72;;
19521;SDS011;9905;52.126;5.596;2022-10-16T00:51:06;5.63;;;5.20;;
19521;SDS011;9905;52.126;5.596;2022-10-16T00:53:34;5.38;;;5.07;;
19521;SDS011;9905;52.126;5.596;2022-10-16T00:56:01;5.53;;;5.13;;
19521;SDS011;9905;52.126;5.596;2022-10-16T00:58:29;5.47;;;5.28;;
19521;SDS011;9905;52.126;5.596;2022-10-16T01:00:57;5.15;;;4.95;;
19521;SDS011;9905;52.126;5.596;2022-10-16T01:03:26;5.57;;;5.38;;
19521;SDS011;9905;52.126;5.596;2022-10-16T01:05:57;4.72;;;4.53;;
19521;SDS011;9905;52.126;5.596;2022-10-16T01:08:37;4.82;;;4.63;;
19521;SDS011;9905;52.126;5.596;2022-10-16T01:11:11;4.70;;;4.40;;
19521;SDS011;9905;52.126;5.596;2022-10-16T01:13:47;5.13;;;4.82;;
19521;SDS011;9905;52.126;5.596;2022-10-16T01:16:22;5.38;;;5.07;;
19521;SDS011;9905;52.126;5.596;2022-10-16T01:18:57;4.63;;;4.47;;
19521;SDS011;9905;52.126;5.596;2022-10-16T01:21:31;5.30;;;5.07;;
19521;SDS011;9905;52.126;5.596;2022-10-16T01:24:03;5.78;;;5.47;;
19521;SDS011;9905;52.126;5.596;2022-10-16T01:26:41;5.18;;;4.88;;
19521;SDS011;9905;52.126;5.596;2022-10-16T01:29:20;5.32;;;5.13;;
19521;SDS011;9905;52.126;5.596;2022-10-16T01:31:57;5.82;;;5.45;;
19521;SDS011;9905;52.126;5.596;2022-10-16T01:34:31;5.22;;;4.93;;
19521;SDS011;9905;52.126;5.596;2022-10-16T01:37:02;5.40;;;5.10;;
19521;SDS011;9905;52.126;5.596;2022-10-16T01:39:32;5.10;;;4.78;;
19521;SDS011;9905;52.126;5.596;2022-10-16T01:42:04;5.07;;;4.88;;
19521;SDS011;9905;52.126;5.596;2022-10-16T01:44:35;5.20;;;5.00;;
19521;SDS011;9905;52.126;5.596;2022-10-16T01:47:03;5.38;;;5.18;;
19521;SDS011;9905;52.126;5.596;2022-10-16T01:49:32;5.20;;;4.90;;
19521;SDS011;9905;52.126;5.596;2022-10-16T01:52:02;5.20;;;5.00;;
19521;SDS011;9905;52.126;5.596;2022-10-16T01:54:31;4.90;;;4.70;;
19521;SDS011;9905;52.126;5.596;2022-10-16T01:57:00;4.90;;;4.70;;
19521;SDS011;9905;52.126;5.596;2022-10-16T01:59:29;4.88;;;4.57;;
19521;SDS011;9905;52.126;5.596;2022-10-16T02:02:00;4.90;;;4.60;;
19521;SDS011;9905;52.126;5.596;2022-10-16T02:04:33;5.20;;;5.00;;
19521;SDS011;9905;52.126;5.596;2022-10-16T02:07:03;5.30;;;5.10;;
19521;SDS011;9905;52.126;5.596;2022-10-16T02:09:30;5.20;;;5.00;;
19521;SDS011;9905;52.126;5.596;2022-10-16T02:12:00;5.22;;;5.03;;
19521;SDS011;9905;52.126;5.596;2022-10-16T02:14:32;5.25;;;5.05;;
19521;SDS011;9905;52.126;5.596;2022-10-16T02:17:00;5.43;;;5.20;;
19521;SDS011;9905;52.126;5.596;2022-10-16T02:19:26;4.97;;;4.78;;
19521;SDS011;9905;52.126;5.596;2022-10-16T02:21:54;5.55;;;5.25;;
19521;SDS011;9905;52.126;5.596;2022-10-16T02:24:23;5.47;;;4.93;;
19521;SDS011;9905;52.126;5.596;2022-10-16T02:27:00;5.72;;;5.43;;
19521;SDS011;9905;52.126;5.596;2022-10-16T02:29:33;5.80;;;5.20;;
19521;SDS011;9905;52.126;5.596;2022-10-16T02:32:10;5.40;;;5.10;;
19521;SDS011;9905;52.126;5.596;2022-10-16T02:34:40;5.65;;;5.25;;
19521;SDS011;9905;52.126;5.596;2022-10-16T02:37:08;5.15;;;4.95;;
19521;SDS011;9905;52.126;5.596;2022-10-16T02:39:35;5.53;;;5.32;;
19521;SDS011;9905;52.126;5.596;2022-10-16T02:42:03;5.78;;;5.38;;
19521;SDS011;9905;52.126;5.596;2022-10-16T02:44:29;5.40;;;5.20;;
19521;SDS011;9905;52.126;5.596;2022-10-16T02:46:56;5.40;;;5.20;;
19521;SDS011;9905;52.126;5.596;2022-10-16T02:49:24;5.85;;;5.55;;
19521;SDS011;9905;52.126;5.596;2022-10-16T02:51:51;6.30;;;6.00;;
19521;SDS011;9905;52.126;5.596;2022-10-16T02:54:18;5.43;;;5.22;;
19521;SDS011;9905;52.126;5.596;2022-10-16T02:56:44;5.05;;;4.88;;
19521;SDS011;9905;52.126;5.596;2022-10-16T02:59:11;5.50;;;5.25;;
19521;SDS011;9905;52.126;5.596;2022-10-16T03:01:38;5.30;;;5.10;;
19521;SDS011;9905;52.126;5.596;2022-10-16T03:04:04;5.35;;;5.15;;
19521;SDS011;9905;52.126;5.596;2022-10-16T03:06:32;5.55;;;5.30;;
19521;SDS011;9905;52.126;5.596;2022-10-16T03:08:59;5.55;;;5.35;;
19521;SDS011;9905;52.126;5.596;2022-10-16T03:11:26;5.85;;;5.63;;
19521;SDS011;9905;52.126;5.596;2022-10-16T03:13:53;5.38;;;5.18;;
19521;SDS011;9905;52.126;5.596;2022-10-16T03:16:20;5.60;;;5.30;;
19521;SDS011;9905;52.126;5.596;2022-10-16T03:18:47;5.35;;;4.97;;
19521;SDS011;9905;52.126;5.596;2022-10-16T03:21:15;5.90;;;5.70;;
19521;SDS011;9905;52.126;5.596;2022-10-16T03:23:43;5.32;;;5.13;;
19521;SDS011;9905;52.126;5.596;2022-10-16T03:26:10;5.63;;;5.38;;
19521;SDS011;9905;52.126;5.596;2022-10-16T03:28:36;5.85;;;5.65;;
19521;SDS011;9905;52.126;5.596;2022-10-16T03:31:03;5.80;;;5.60;;
19521;SDS011;9905;52.126;5.596;2022-10-16T03:33:30;5.53;;;5.32;;
19521;SDS011;9905;52.126;5.596;2022-10-16T03:35:57;5.82;;;5.63;;
19521;SDS011;9905;52.126;5.596;2022-10-16T03:38:24;5.97;;;5.75;;
19521;SDS011;9905;52.126;5.596;2022-10-16T03:40:52;5.55;;;5.35;;
19521;SDS011;9905;52.126;5.596;2022-10-16T03:43:18;5.65;;;5.45;;
19521;SDS011;9905;52.126;5.596;2022-10-16T03:45:45;5.30;;;5.10;;
19521;SDS011;9905;52.126;5.596;2022-10-16T03:48:12;5.72;;;5.50;;
19521;SDS011;9905;52.126;5.596;2022-10-16T03:50:39;6.32;;;6.13;;
19521;SDS011;9905;52.126;5.596;2022-10-16T03:53:06;6.22;;;5.80;;
19521;SDS011;9905;52.126;5.596;2022-10-16T03:55:33;5.65;;;5.45;;
19521;SDS011;9905;52.126;5.596;2022-10-16T03:58:02;6.05;;;5.85;;
19521;SDS011;9905;52.126;5.596;2022-10-16T04:00:29;6.15;;;5.95;;
19521;SDS011;9905;52.126;5.596;2022-10-16T04:02:55;6.10;;;5.90;;
19521;SDS011;9905;52.126;5.596;2022-10-16T04:05:22;6.05;;;5.78;;
19521;SDS011;9905;52.126;5.596;2022-10-16T04:07:49;5.90;;;5.70;;
19521;SDS011;9905;52.126;5.596;2022-10-16T04:10:15;5.55;;;5.35;;
19521;SDS011;9905;52.126;5.596;2022-10-16T04:12:42;6.15;;;5.75;;
19521;SDS011;9905;52.126;5.596;2022-10-16T04:15:10;6.25;;;5.95;;
19521;SDS011;9905;52.126;5.596;2022-10-16T04:17:37;6.63;;;6.32;;
19521;SDS011;9905;52.126;5.596;2022-10-16T04:20:04;5.90;;;5.70;;
19521;SDS011;9905;52.126;5.596;2022-10-16T04:22:32;6.05;;;5.68;;
19521;SDS011;9905;52.126;5.596;2022-10-16T04:24:58;5.90;;;5.60;;
19521;SDS011;9905;52.126;5.596;2022-10-16T04:27:25;5.97;;;5.78;;
19521;SDS011;9905;52.126;5.596;2022-10-16T04:29:53;5.95;;;5.75;;
19521;SDS011;9905;52.126;5.596;2022-10-16T04:32:21;5.60;;;5.50;;
19521;SDS011;9905;52.126;5.596;2022-10-16T04:34:48;5.50;;;5.30;;
19521;SDS011;9905;52.126;5.596;2022-10-16T04:37:15;6.80;;;6.30;;
19521;SDS011;9905;52.126;5.596;2022-10-16T04:39:42;6.47;;;6.28;;
19521;SDS011;9905;52.126;5.596;2022-10-16T04:42:10;6.18;;;5.88;;
19521;SDS011;9905;52.126;5.596;2022-10-16T04:44:36;5.93;;;5.68;;
19521;SDS011;9905;52.126;5.596;2022-10-16T04:47:03;6.72;;;6.38;;
19521;SDS011;9905;52.126;5.596;2022-10-16T04:49:31;6.28;;;6.07;;
19521;SDS011;9905;52.126;5.596;2022-10-16T04:51:58;6.25;;;5.97;;
19521;SDS011;9905;52.126;5.596;2022-10-16T04:54:25;6.35;;;6.05;;
19521;SDS011;9905;52.126;5.596;2022-10-16T04:56:51;6.03;;;5.70;;
19521;SDS011;9905;52.126;5.596;2022-10-16T04:59:18;6.05;;;5.85;;
19521;SDS011;9905;52.126;5.596;2022-10-16T05:01:46;6.38;;;6.18;;
19521;SDS011;9905;52.126;5.596;2022-10-16T05:04:12;6.35;;;6.00;;
19521;SDS011;9905;52.126;5.596;2022-10-16T05:06:41;6.55;;;6.10;;
19521;SDS011;9905;52.126;5.596;2022-10-16T05:09:08;6.18;;;5.88;;
19521;SDS011;9905;52.126;5.596;2022-10-16T05:11:35;6.43;;;6.22;;
19521;SDS011;9905;52.126;5.596;2022-10-16T05:14:02;7.28;;;6.88;;
19521;SDS011;9905;52.126;5.596;2022-10-16T05:16:29;6.55;;;6.25;;
19521;SDS011;9905;52.126;5.596;2022-10-16T05:18:56;6.55;;;6.25;;
19521;SDS011;9905;52.126;5.596;2022-10-16T05:21:23;6.55;;;6.35;;
19521;SDS011;9905;52.126;5.596;2022-10-16T05:23:51;6.85;;;6.55;;
19521;SDS011;9905;52.126;5.596;2022-10-16T05:26:19;7.00;;;6.38;;
19521;SDS011;9905;52.126;5.596;2022-10-16T05:28:46;6.47;;;6.28;;
19521;SDS011;9905;52.126;5.596;2022-10-16T05:31:12;7.82;;;7.43;;
19521;SDS011;9905;52.126;5.596;2022-10-16T05:33:40;6.97;;;6.65;;
19521;SDS011;9905;52.126;5.596;2022-10-16T05:36:07;7.15;;;6.85;;
19521;SDS011;9905;52.126;5.596;2022-10-16T05:38:35;7.03;;;6.72;;
19521;SDS011;9905;52.126;5.596;2022-10-16T05:41:05;6.80;;;6.50;;
19521;SDS011;9905;52.126;5.596;2022-10-16T05:43:32;7.80;;;7.40;;
19521;SDS011;9905;52.126;5.596;2022-10-16T05:46:00;8.02;;;7.63;;
19521;SDS011;9905;52.126;5.596;2022-10-16T05:48:28;7.80;;;7.30;;
19521;SDS011;9905;52.126;5.596;2022-10-16T05:50:56;7.80;;;7.50;;
19521;SDS011;9905;52.126;5.596;2022-10-16T05:53:23;8.02;;;7.32;;
19521;SDS011;9905;52.126;5.596;2022-10-16T05:55:51;7.82;;;7.43;;
19521;SDS011;9905;52.126;5.596;2022-10-16T05:58:20;7.85;;;7.25;;
19521;SDS011;9905;52.126;5.596;2022-10-16T06:00:52;7.30;;;7.00;;
19521;SDS011;9905;52.126;5.596;2022-10-16T06:03:19;8.25;;;7.85;;
19521;SDS011;9905;52.126;5.596;2022-10-16T06:05:47;8.15;;;7.75;;
19521;SDS011;9905;52.126;5.596;2022-10-16T06:08:14;8.05;;;7.63;;
19521;SDS011;9905;52.126;5.596;2022-10-16T06:10:41;8.57;;;8.15;;
19521;SDS011;9905;52.126;5.596;2022-10-16T06:13:08;8.50;;;8.18;;
19521;SDS011;9905;52.126;5.596;2022-10-16T06:15:36;8.38;;;7.97;;
19521;SDS011;9905;52.126;5.596;2022-10-16T06:18:04;7.97;;;7.57;;
19521;SDS011;9905;52.126;5.596;2022-10-16T06:20:30;8.45;;;7.93;;
19521;SDS011;9905;52.126;5.596;2022-10-16T06:22:57;8.35;;;7.82;;
19521;SDS011;9905;52.126;5.596;2022-10-16T06:25:24;8.73;;;8.23;;
19521;SDS011;9905;52.126;5.596;2022-10-16T06:27:50;8.23;;;7.97;;
19521;SDS011;9905;52.126;5.596;2022-10-16T06:30:17;8.07;;;7.70;;
19521;SDS011;9905;52.126;5.596;2022-10-16T06:32:45;7.72;;;7.53;;
19521;SDS011;9905;52.126;5.596;2022-10-16T06:35:12;8.43;;;8.07;;
19521;SDS011;9905;52.126;5.596;2022-10-16T06:37:39;7.57;;;7.28;;
19521;SDS011;9905;52.126;5.596;2022-10-16T06:40:06;8.23;;;7.85;;
19521;SDS011;9905;52.126;5.596;2022-10-16T06:42:33;7.47;;;7.15;;
19521;SDS011;9905;52.126;5.596;2022-10-16T06:44:59;7.38;;;7.07;;
19521;SDS011;9905;52.126;5.596;2022-10-16T06:47:26;8.02;;;7.63;;
19521;SDS011;9905;52.126;5.596;2022-10-16T06:49:55;7.03;;;6.72;;
19521;SDS011;9905;52.126;5.596;2022-10-16T06:52:21;7.47;;;7.18;;
19521;SDS011;9905;52.126;5.596;2022-10-16T06:54:49;7.28;;;6.97;;
19521;SDS011;9905;52.126;5.596;2022-10-16T06:57:16;6.65;;;6.43;;
19521;SDS011;9905;52.126;5.596;2022-10-16T06:59:42;7.10;;;6.90;;
19521;SDS011;9905;52.126;5.596;2022-10-16T07:02:09;7.03;;;6.82;;
19521;SDS011;9905;52.126;5.596;2022-10-16T07:04:36;7.38;;;7.07;;
19521;SDS011;9905;52.126;5.596;2022-10-16T07:07:04;7.70;;;7.10;;
19521;SDS011;9905;52.126;5.596;2022-10-16T07:09:31;6.90;;;6.50;;
19521;SDS011;9905;52.126;5.596;2022-10-16T07:11:57;7.30;;;7.00;;
19521;SDS011;9905;52.126;5.596;2022-10-16T07:14:24;6.88;;;6.68;;
19521;SDS011;9905;52.126;5.596;2022-10-16T07:16:51;6.68;;;6.47;;
19521;SDS011;9905;52.126;5.596;2022-10-16T07:19:18;6.80;;;6.28;;
19521;SDS011;9905;52.126;5.596;2022-10-16T07:21:44;6.80;;;6.60;;
19521;SDS011;9905;52.126;5.596;2022-10-16T07:24:15;7.25;;;6.85;;
19521;SDS011;9905;52.126;5.596;2022-10-16T07:26:43;7.22;;;6.82;;
19521;SDS011;9905;52.126;5.596;2022-10-16T07:29:13;6.50;;;5.97;;
19521;SDS011;9905;52.126;5.596;2022-10-16T07:31:43;6.07;;;5.82;;
19521;SDS011;9905;52.126;5.596;2022-10-16T07:34:11;6.50;;;6.20;;
19521;SDS011;9905;52.126;5.596;2022-10-16T07:36:39;5.95;;;5.75;;
19521;SDS011;9905;52.126;5.596;2022-10-16T07:39:06;6.78;;;6.43;;
19521;SDS011;9905;52.126;5.596;2022-10-16T07:41:34;6.07;;;5.78;;
19521;SDS011;9905;52.126;5.596;2022-10-16T07:44:02;6.43;;;5.97;;
19521;SDS011;9905;52.126;5.596;2022-10-16T07:46:31;6.22;;;5.95;;
19521;SDS011;9905;52.126;5.596;2022-10-16T07:49:00;6.28;;;6.07;;
19521;SDS011;9905;52.126;5.596;2022-10-16T07:51:27;6.00;;;5.70;;
19521;SDS011;9905;52.126;5.596;2022-10-16T07:53:54;7.00;;;6.60;;
19521;SDS011;9905;52.126;5.596;2022-10-16T07:56:21;6.72;;;6.50;;
19521;SDS011;9905;52.126;5.596;2022-10-16T07:58:49;6.45;;;6.25;;
19521;SDS011;9905;52.126;5.596;2022-10-16T08:01:17;6.55;;;6.28;;
19521;SDS011;9905;52.126;5.596;2022-10-16T08:03:45;6.88;;;6.45;;
19521;SDS011;9905;52.126;5.596;2022-10-16T08:06:13;7.25;;;6.75;;
19521;SDS011;9905;52.126;5.596;2022-10-16T08:08:39;6.10;;;5.90;;
19521;SDS011;9905;52.126;5.596;2022-10-16T08:11:06;6.00;;;5.70;;
19521;SDS011;9905;52.126;5.596;2022-10-16T08:13:33;6.82;;;6.32;;
19521;SDS011;9905;52.126;5.596;2022-10-16T08:16:01;7.07;;;6.68;;
19521;SDS011;9905;52.126;5.596;2022-10-16T08:18:32;6.70;;;6.30;;
19521;SDS011;9905;52.126;5.596;2022-10-16T08:20:59;5.60;;;5.30;;
19521;SDS011;9905;52.126;5.596;2022-10-16T08:23:26;5.68;;;5.38;;
19521;SDS011;9905;52.126;5.596;2022-10-16T08:25:54;5.32;;;5.20;;
19521;SDS011;9905;52.126;5.596;2022-10-16T08:28:22;6.43;;;5.93;;
19521;SDS011;9905;52.126;5.596;2022-10-16T08:30:49;5.78;;;5.57;;
19521;SDS011;9905;52.126;5.596;2022-10-16T08:33:17;5.60;;;5.40;;
19521;SDS011;9905;52.126;5.596;2022-10-16T08:35:50;5.45;;;5.22;;
19521;SDS011;9905;52.126;5.596;2022-10-16T08:38:17;5.70;;;5.40;;
19521;SDS011;9905;52.126;5.596;2022-10-16T08:40:44;5.70;;;5.40;;
19521;SDS011;9905;52.126;5.596;2022-10-16T08:43:16;5.55;;;5.35;;
19521;SDS011;9905;52.126;5.596;2022-10-16T08:45:59;5.93;;;5.43;;
19521;SDS011;9905;52.126;5.596;2022-10-16T08:48:45;5.65;;;5.20;;
19521;SDS011;9905;52.126;5.596;2022-10-16T08:51:15;5.30;;;4.90;;
19521;SDS011;9905;52.126;5.596;2022-10-16T08:53:48;5.30;;;5.00;;
19521;SDS011;9905;52.126;5.596;2022-10-16T08:56:18;5.07;;;4.78;;
19521;SDS011;9905;52.126;5.596;2022-10-16T08:58:45;4.95;;;4.75;;
19521;SDS011;9905;52.126;5.596;2022-10-16T09:01:13;5.03;;;4.63;;
19521;SDS011;9905;52.126;5.596;2022-10-16T09:06:46;4.93;;;4.63;;
19521;SDS011;9905;52.126;5.596;2022-10-16T09:09:20;5.60;;;5.10;;
19521;SDS011;9905;52.126;5.596;2022-10-16T09:12:12;5.13;;;4.80;;
19521;SDS011;9905;52.126;5.596;2022-10-16T09:14:47;4.55;;;4.25;;
19521;SDS011;9905;52.126;5.596;2022-10-16T09:17:25;5.05;;;4.57;;
19521;SDS011;9905;52.126;5.596;2022-10-16T09:20:03;4.05;;;3.83;;
19521;SDS011;9905;52.126;5.596;2022-10-16T09:22:43;4.43;;;4.13;;
19521;SDS011;9905;52.126;5.596;2022-10-16T09:25:11;4.60;;;4.30;;
19521;SDS011;9905;52.126;5.596;2022-10-16T09:27:39;5.07;;;4.65;;
19521;SDS011;9905;52.126;5.596;2022-10-16T09:30:10;4.00;;;3.65;;
19521;SDS011;9905;52.126;5.596;2022-10-16T09:32:38;4.82;;;3.90;;
19521;SDS011;9905;52.126;5.596;2022-10-16T09:35:09;4.20;;;3.70;;
19521;SDS011;9905;52.126;5.596;2022-10-16T09:37:40;4.05;;;3.83;;
19521;SDS011;9905;52.126;5.596;2022-10-16T09:40:12;4.55;;;3.47;;
19521;SDS011;9905;52.126;5.596;2022-10-16T09:42:40;3.75;;;3.50;;
19521;SDS011;9905;52.126;5.596;2022-10-16T09:45:19;4.28;;;3.83;;
19521;SDS011;9905;52.126;5.596;2022-10-16T09:47:47;4.88;;;3.47;;
19521;SDS011;9905;52.126;5.596;2022-10-16T09:50:20;5.68;;;4.40;;
19521;SDS011;9905;52.126;5.596;2022-10-16T09:52:50;3.90;;;3.35;;
19521;SDS011;9905;52.126;5.596;2022-10-16T09:55:17;4.28;;;3.80;;
19521;SDS011;9905;52.126;5.596;2022-10-16T09:57:50;4.43;;;3.88;;
19521;SDS011;9905;52.126;5.596;2022-10-16T10:00:17;4.35;;;3.45;;
19521;SDS011;9905;52.126;5.596;2022-10-16T10:02:45;5.07;;;3.88;;
19521;SDS011;9905;52.126;5.596;2022-10-16T10:05:18;4.90;;;3.53;;
19521;SDS011;9905;52.126;5.596;2022-10-16T10:07:52;5.63;;;3.97;;
19521;SDS011;9905;52.126;5.596;2022-10-16T10:10:23;3.67;;;3.38;;
19521;SDS011;9905;52.126;5.596;2022-10-16T10:12:52;3.60;;;3.40;;
19521;SDS011;9905;52.126;5.596;2022-10-16T10:15:19;3.80;;;3.08;;
19521;SDS011;9905;52.126;5.596;2022-10-16T10:17:49;4.32;;;3.92;;
19521;SDS011;9905;52.126;5.596;2022-10-16T10:20:24;5.18;;;3.30;;
19521;SDS011;9905;52.126;5.596;2022-10-16T10:22:53;6.75;;;3.63;;
19521;SDS011;9905;52.126;5.596;2022-10-16T10:25:31;2.97;;;2.70;;
19521;SDS011;9905;52.126;5.596;2022-10-16T10:28:14;4.88;;;3.10;;
19521;SDS011;9905;52.126;5.596;2022-10-16T10:30:49;4.15;;;3.38;;
19521;SDS011;9905;52.126;5.596;2022-10-16T10:33:24;6.57;;;3.10;;
19521;SDS011;9905;52.126;5.596;2022-10-16T10:35:56;4.45;;;2.65;;
19521;SDS011;9905;52.126;5.596;2022-10-16T10:38:31;4.90;;;3.22;;
19521;SDS011;9905;52.126;5.596;2022-10-16T10:41:13;3.20;;;3.00;;
19521;SDS011;9905;52.126;5.596;2022-10-16T10:43:55;4.32;;;3.08;;
19521;SDS011;9905;52.126;5.596;2022-10-16T10:46:32;2.97;;;2.70;;
19521;SDS011;9905;52.126;5.596;2022-10-16T10:49:14;6.45;;;3.03;;
19521;SDS011;9905;52.126;5.596;2022-10-16T10:51:55;4.10;;;2.78;;
19521;SDS011;9905;52.126;5.596;2022-10-16T10:54:34;4.10;;;3.15;;
19521;SDS011;9905;52.126;5.596;2022-10-16T10:57:09;3.95;;;2.80;;
19521;SDS011;9905;52.126;5.596;2022-10-16T10:59:43;5.28;;;3.20;;
19521;SDS011;9905;52.126;5.596;2022-10-16T11:02:23;4.18;;;3.25;;
19521;SDS011;9905;52.126;5.596;2022-10-16T11:07:54;5.05;;;2.90;;
19521;SDS011;9905;52.126;5.596;2022-10-16T11:10:25;5.18;;;3.00;;
19521;SDS011;9905;52.126;5.596;2022-10-16T11:12:58;3.30;;;3.10;;
19521;SDS011;9905;52.126;5.596;2022-10-16T11:15:36;3.08;;;2.83;;
19521;SDS011;9905;52.126;5.596;2022-10-16T11:18:06;6.32;;;3.92;;
19521;SDS011;9905;52.126;5.596;2022-10-16T11:20:39;3.20;;;2.90;;
19521;SDS011;9905;52.126;5.596;2022-10-16T11:23:10;2.80;;;2.60;;
19521;SDS011;9905;52.126;5.596;2022-10-16T11:25:42;3.55;;;2.78;;
19521;SDS011;9905;52.126;5.596;2022-10-16T11:28:13;2.97;;;2.85;;
19521;SDS011;9905;52.126;5.596;2022-10-16T11:30:43;3.42;;;2.90;;
19521;SDS011;9905;52.126;5.596;2022-10-16T11:33:23;3.55;;;2.60;;
19521;SDS011;9905;52.126;5.596;2022-10-16T11:35:57;2.78;;;2.55;;
19521;SDS011;9905;52.126;5.596;2022-10-16T11:38:30;4.38;;;3.13;;
19521;SDS011;9905;52.126;5.596;2022-10-16T11:41:03;2.70;;;2.50;;
19521;SDS011;9905;52.126;5.596;2022-10-16T11:43:38;4.22;;;2.80;;
19521;SDS011;9905;52.126;5.596;2022-10-16T11:46:09;3.88;;;2.97;;
19521;SDS011;9905;52.126;5.596;2022-10-16T11:48:41;3.75;;;2.70;;
19521;SDS011;9905;52.126;5.596;2022-10-16T11:51:14;3.30;;;2.40;;
19521;SDS011;9905;52.126;5.596;2022-10-16T11:53:49;3.45;;;2.83;;
19521;SDS011;9905;52.126;5.596;2022-10-16T11:56:21;3.35;;;2.63;;
19521;SDS011;9905;52.126;5.596;2022-10-16T11:58:52;3.00;;;2.55;;
19521;SDS011;9905;52.126;5.596;2022-10-16T12:01:25;2.60;;;2.40;;
19521;SDS011;9905;52.126;5.596;2022-10-16T12:04:03;2.83;;;2.45;;
19521;SDS011;9905;52.126;5.596;2022-10-16T12:06:39;3.03;;;2.40;;
19521;SDS011;9905;52.126;5.596;2022-10-16T12:09:11;2.95;;;2.58;;
19521;SDS011;9905;52.126;5.596;2022-10-16T12:11:42;3.22;;;2.20;;
19521;SDS011;9905;52.126;5.596;2022-10-16T12:17:03;2.53;;;2.05;;
19521;SDS011;9905;52.126;5.596;2022-10-16T12:19:56;3.63;;;2.83;;
19521;SDS011;9905;52.126;5.596;2022-10-16T12:22:24;3.08;;;2.78;;
19521;SDS011;9905;52.126;5.596;2022-10-16T12:24:55;3.10;;;2.78;;
19521;SDS011;9905;52.126;5.596;2022-10-16T12:27:23;2.17;;;2.08;;
19521;SDS011;9905;52.126;5.596;2022-10-16T12:29:56;3.47;;;2.15;;
19521;SDS011;9905;52.126;5.596;2022-10-16T12:32:28;3.05;;;2.75;;
19521;SDS011;9905;52.126;5.596;2022-10-16T12:34:57;3.42;;;2.42;;
19521;SDS011;9905;52.126;5.596;2022-10-16T12:37:25;2.83;;;2.40;;
19521;SDS011;9905;52.126;5.596;2022-10-16T12:39:55;2.60;;;2.40;;
19521;SDS011;9905;52.126;5.596;2022-10-16T12:42:31;4.60;;;2.17;;
19521;SDS011;9905;52.126;5.596;2022-10-16T12:45:01;4.13;;;2.05;;
19521;SDS011;9905;52.126;5.596;2022-10-16T12:47:47;3.83;;;1.95;;
19521;SDS011;9905;52.126;5.596;2022-10-16T12:50:23;1.90;;;1.80;;
19521;SDS011;9905;52.126;5.596;2022-10-16T12:52:52;6.05;;;2.20;;
19521;SDS011;9905;52.126;5.596;2022-10-16T12:55:20;3.50;;;1.85;;
19521;SDS011;9905;52.126;5.596;2022-10-16T12:57:54;2.53;;;1.92;;
19521;SDS011;9905;52.126;5.596;2022-10-16T13:00:38;2.40;;;2.00;;
19521;SDS011;9905;52.126;5.596;2022-10-16T13:06:16;3.38;;;2.15;;
19521;SDS011;9905;52.126;5.596;2022-10-16T13:09:02;4.47;;;2.00;;
19521;SDS011;9905;52.126;5.596;2022-10-16T13:11:52;4.45;;;2.22;;
19521;SDS011;9905;52.126;5.596;2022-10-16T13:14:35;5.50;;;2.33;;
19521;SDS011;9905;52.126;5.596;2022-10-16T13:17:35;3.83;;;2.47;;
19521;SDS011;9905;52.126;5.596;2022-10-16T13:20:11;2.13;;;1.92;;
19521;SDS011;9905;52.126;5.596;2022-10-16T13:22:47;3.15;;;2.72;;
19521;SDS011;9905;52.126;5.596;2022-10-16T13:25:26;3.95;;;2.35;;
19521;SDS011;9905;52.126;5.596;2022-10-16T13:28:01;5.55;;;2.20;;
19521;SDS011;9905;52.126;5.596;2022-10-16T13:30:30;3.10;;;2.08;;
19521;SDS011;9905;52.126;5.596;2022-10-16T13:33:02;2.47;;;1.90;;
19521;SDS011;9905;52.126;5.596;2022-10-16T13:35:32;4.70;;;2.53;;
19521;SDS011;9905;52.126;5.596;2022-10-16T13:38:09;3.90;;;2.28;;
19521;SDS011;9905;52.126;5.596;2022-10-16T13:40:48;4.35;;;2.63;;
19521;SDS011;9905;52.126;5.596;2022-10-16T13:43:16;3.47;;;2.10;;
19521;SDS011;9905;52.126;5.596;2022-10-16T13:45:52;2.20;;;1.83;;
19521;SDS011;9905;52.126;5.596;2022-10-16T13:48:24;4.78;;;1.90;;
19521;SDS011;9905;52.126;5.596;2022-10-16T13:50:58;2.55;;;2.05;;
19521;SDS011;9905;52.126;5.596;2022-10-16T13:53:26;3.75;;;1.90;;
19521;SDS011;9905;52.126;5.596;2022-10-16T13:55:53;2.97;;;1.98;;
19521;SDS011;9905;52.126;5.596;2022-10-16T13:58:20;4.45;;;1.95;;
19521;SDS011;9905;52.126;5.596;2022-10-16T14:00:54;5.05;;;1.77;;
19521;SDS011;9905;52.126;5.596;2022-10-16T14:03:22;4.47;;;2.20;;
19521;SDS011;9905;52.126;5.596;2022-10-16T14:05:52;2.17;;;1.92;;
19521;SDS011;9905;52.126;5.596;2022-10-16T14:08:21;2.75;;;1.88;;
19521;SDS011;9905;52.126;5.596;2022-10-16T14:10:49;4.25;;;2.45;;
19521;SDS011;9905;52.126;5.596;2022-10-16T14:13:18;3.17;;;2.33;;
19521;SDS011;9905;52.126;5.596;2022-10-16T14:15:46;2.08;;;1.85;;
19521;SDS011;9905;52.126;5.596;2022-10-16T14:18:17;7.38;;;2.30;;
19521;SDS011;9905;52.126;5.596;2022-10-16T14:20:48;3.05;;;2.35;;
19521;SDS011;9905;52.126;5.596;2022-10-16T14:23:19;4.38;;;1.80;;
19521;SDS011;9905;52.126;5.596;2022-10-16T14:25:48;4.05;;;1.90;;
19521;SDS011;9905;52.126;5.596;2022-10-16T14:28:16;4.38;;;1.83;;
19521;SDS011;9905;52.126;5.596;2022-10-16T14:31:00;2.08;;;1.90;;
19521;SDS011;9905;52.126;5.596;2022-10-16T14:33:31;4.57;;;2.13;;
19521;SDS011;9905;52.126;5.596;2022-10-16T14:36:00;3.05;;;2.45;;
19521;SDS011;9905;52.126;5.596;2022-10-16T14:38:29;2.20;;;2.00;;
19521;SDS011;9905;52.126;5.596;2022-10-16T14:40:58;4.55;;;1.98;;
19521;SDS011;9905;52.126;5.596;2022-10-16T14:43:27;4.63;;;2.33;;
19521;SDS011;9905;52.126;5.596;2022-10-16T14:45:57;2.95;;;1.70;;
19521;SDS011;9905;52.126;5.596;2022-10-16T14:48:25;3.55;;;2.00;;
19521;SDS011;9905;52.126;5.596;2022-10-16T14:50:52;4.05;;;2.20;;
19521;SDS011;9905;52.126;5.596;2022-10-16T14:53:19;3.13;;;2.20;;
19521;SDS011;9905;52.126;5.596;2022-10-16T14:55:46;3.50;;;2.55;;
19521;SDS011;9905;52.126;5.596;2022-10-16T14:58:13;3.10;;;2.17;;
19521;SDS011;9905;52.126;5.596;2022-10-16T15:00:42;4.50;;;2.42;;
19521;SDS011;9905;52.126;5.596;2022-10-16T15:03:09;2.58;;;2.08;;
19521;SDS011;9905;52.126;5.596;2022-10-16T15:05:37;1.80;;;1.70;;
19521;SDS011;9905;52.126;5.596;2022-10-16T15:08:04;5.25;;;1.90;;
19521;SDS011;9905;52.126;5.596;2022-10-16T15:10:31;2.42;;;2.03;;
19521;SDS011;9905;52.126;5.596;2022-10-16T15:13:04;2.63;;;1.85;;
19521;SDS011;9905;52.126;5.596;2022-10-16T15:15:32;2.40;;;1.90;;
19521;SDS011;9905;52.126;5.596;2022-10-16T15:18:01;3.50;;;1.80;;
19521;SDS011;9905;52.126;5.596;2022-10-16T15:20:28;2.38;;;2.13;;
19521;SDS011;9905;52.126;5.596;2022-10-16T15:23:00;3.20;;;2.58;;
19521;SDS011;9905;52.126;5.596;2022-10-16T15:25:30;3.85;;;2.35;;
19521;SDS011;9905;52.126;5.596;2022-10-16T15:27:58;2.70;;;2.30;;
19521;SDS011;9905;52.126;5.596;2022-10-16T15:30:26;3.78;;;2.80;;